sensor_id;sensor_type;location;lat;lon;timestamp;P1;durP1;ratioP1;P2;durP2;ratioP2
45128;SDS011;35512;56.312;101.728;2023-05-07T00:00:06;0.30;;;0.30;;
45128;SDS011;35512;56.312;101.728;2023-05-07T00:02:37;0.30;;;0.30;;
45128;SDS011;35512;56.312;101.728;2023-05-07T00:05:06;0.22;;;0.22;;
45128;SDS011;35512;56.312;101.728;2023-05-07T00:07:36;0.30;;;0.30;;
45128;SDS011;35512;56.312;101.728;2023-05-07T00:10:05;0.30;;;0.30;;
45128;SDS011;35512;56.312;101.728;2023-05-07T00:12:35;0.30;;;0.30;;
45128;SDS011;35512;56.312;101.728;2023-05-07T00:15:04;0.30;;;0.30;;
45128;SDS011;35512;56.312;101.728;2023-05-07T00:17:34;0.30;;;0.30;;
45128;SDS011;35512;56.312;101.728;2023-05-07T00:20:04;0.30;;;0.30;;
45128;SDS011;35512;56.312;101.728;2023-05-07T00:22:34;0.30;;;0.30;;
45128;SDS011;35512;56.312;101.728;2023-05-07T00:25:03;0.30;;;0.30;;
45128;SDS011;35512;56.312;101.728;2023-05-07T00:27:33;0.30;;;0.30;;
45128;SDS011;35512;56.312;101.728;2023-05-07T00:30:02;0.30;;;0.30;;
45128;SDS011;35512;56.312;101.728;2023-05-07T00:32:34;0.30;;;0.30;;
45128;SDS011;35512;56.312;101.728;2023-05-07T00:35:03;0.30;;;0.30;;
45128;SDS011;35512;56.312;101.728;2023-05-07T00:37:33;0.30;;;0.30;;
45128;SDS011;35512;56.312;101.728;2023-05-07T00:40:02;0.30;;;0.30;;
45128;SDS011;35512;56.312;101.728;2023-05-07T00:42:35;0.30;;;0.30;;
45128;SDS011;35512;56.312;101.728;2023-05-07T00:45:05;0.30;;;0.30;;
45128;SDS011;35512;56.312;101.728;2023-05-07T00:47:35;0.30;;;0.30;;
45128;SDS011;35512;56.312;101.728;2023-05-07T00:50:07;0.30;;;0.30;;
45128;SDS011;35512;56.312;101.728;2023-05-07T00:52:38;0.30;;;0.30;;
45128;SDS011;35512;56.312;101.728;2023-05-07T00:55:07;0.30;;;0.30;;
45128;SDS011;35512;56.312;101.728;2023-05-07T00:57:37;0.30;;;0.30;;
45128;SDS011;35512;56.312;101.728;2023-05-07T01:00:08;0.30;;;0.30;;
45128;SDS011;35512;56.312;101.728;2023-05-07T01:02:39;0.30;;;0.30;;
45128;SDS011;35512;56.312;101.728;2023-05-07T01:05:10;0.30;;;0.30;;
45128;SDS011;35512;56.312;101.728;2023-05-07T01:07:41;0.30;;;0.30;;
45128;SDS011;35512;56.312;101.728;2023-05-07T01:10:11;0.30;;;0.30;;
45128;SDS011;35512;56.312;101.728;2023-05-07T01:12:41;0.30;;;0.30;;
45128;SDS011;35512;56.312;101.728;2023-05-07T01:15:11;0.30;;;0.30;;
45128;SDS011;35512;56.312;101.728;2023-05-07T01:17:41;0.30;;;0.30;;
45128;SDS011;35512;56.312;101.728;2023-05-07T01:20:20;0.30;;;0.30;;
45128;SDS011;35512;56.312;101.728;2023-05-07T01:22:51;0.30;;;0.30;;
45128;SDS011;35512;56.312;101.728;2023-05-07T01:25:21;0.30;;;0.30;;
45128;SDS011;35512;56.312;101.728;2023-05-07T01:27:53;0.30;;;0.30;;
45128;SDS011;35512;56.312;101.728;2023-05-07T01:30:26;0.30;;;0.30;;
45128;SDS011;35512;56.312;101.728;2023-05-07T01:32:58;0.30;;;0.30;;
45128;SDS011;35512;56.312;101.728;2023-05-07T01:35:37;0.30;;;0.30;;
45128;SDS011;35512;56.312;101.728;2023-05-07T01:38:10;0.30;;;0.30;;
45128;SDS011;35512;56.312;101.728;2023-05-07T01:40:39;0.30;;;0.30;;
45128;SDS011;35512;56.312;101.728;2023-05-07T01:43:09;0.30;;;0.30;;
45128;SDS011;35512;56.312;101.728;2023-05-07T01:45:39;0.30;;;0.30;;
45128;SDS011;35512;56.312;101.728;2023-05-07T01:48:09;0.30;;;0.30;;
45128;SDS011;35512;56.312;101.728;2023-05-07T01:50:39;0.30;;;0.30;;
45128;SDS011;35512;56.312;101.728;2023-05-07T01:53:09;0.20;;;0.20;;
45128;SDS011;35512;56.312;101.728;2023-05-07T01:55:39;0.30;;;0.30;;
45128;SDS011;35512;56.312;101.728;2023-05-07T01:58:08;0.30;;;0.30;;
45128;SDS011;35512;56.312;101.728;2023-05-07T02:00:38;0.30;;;0.30;;
45128;SDS011;35512;56.312;101.728;2023-05-07T02:03:08;0.30;;;0.30;;
45128;SDS011;35512;56.312;101.728;2023-05-07T02:05:45;0.30;;;0.30;;
45128;SDS011;35512;56.312;101.728;2023-05-07T02:08:34;0.25;;;0.25;;
45128;SDS011;35512;56.312;101.728;2023-05-07T02:11:03;0.20;;;0.20;;
45128;SDS011;35512;56.312;101.728;2023-05-07T02:13:35;0.22;;;0.22;;
45128;SDS011;35512;56.312;101.728;2023-05-07T02:16:06;0.30;;;0.30;;
45128;SDS011;35512;56.312;101.728;2023-05-07T02:18:35;0.20;;;0.20;;
45128;SDS011;35512;56.312;101.728;2023-05-07T02:21:04;0.20;;;0.20;;
45128;SDS011;35512;56.312;101.728;2023-05-07T02:23:33;0.20;;;0.20;;
45128;SDS011;35512;56.312;101.728;2023-05-07T02:26:03;0.30;;;0.30;;
45128;SDS011;35512;56.312;101.728;2023-05-07T02:28:33;0.30;;;0.30;;
45128;SDS011;35512;56.312;101.728;2023-05-07T02:31:05;0.30;;;0.30;;
45128;SDS011;35512;56.312;101.728;2023-05-07T02:33:35;0.20;;;0.20;;
45128;SDS011;35512;56.312;101.728;2023-05-07T02:36:10;0.30;;;0.30;;
45128;SDS011;35512;56.312;101.728;2023-05-07T02:39:02;0.20;;;0.20;;
45128;SDS011;35512;56.312;101.728;2023-05-07T02:41:32;0.30;;;0.30;;
45128;SDS011;35512;56.312;101.728;2023-05-07T02:44:00;0.20;;;0.20;;
45128;SDS011;35512;56.312;101.728;2023-05-07T02:46:29;0.30;;;0.30;;
45128;SDS011;35512;56.312;101.728;2023-05-07T02:49:04;0.28;;;0.28;;
45128;SDS011;35512;56.312;101.728;2023-05-07T02:51:33;0.20;;;0.20;;
45128;SDS011;35512;56.312;101.728;2023-05-07T02:54:07;0.20;;;0.20;;
45128;SDS011;35512;56.312;101.728;2023-05-07T02:56:36;0.20;;;0.20;;
45128;SDS011;35512;56.312;101.728;2023-05-07T02:59:05;0.25;;;0.25;;
45128;SDS011;35512;56.312;101.728;2023-05-07T03:01:39;0.22;;;0.22;;
45128;SDS011;35512;56.312;101.728;2023-05-07T03:04:09;0.30;;;0.30;;
45128;SDS011;35512;56.312;101.728;2023-05-07T03:06:39;0.20;;;0.20;;
45128;SDS011;35512;56.312;101.728;2023-05-07T03:09:08;0.20;;;0.20;;
45128;SDS011;35512;56.312;101.728;2023-05-07T03:11:37;0.20;;;0.20;;
45128;SDS011;35512;56.312;101.728;2023-05-07T03:14:06;0.20;;;0.20;;
45128;SDS011;35512;56.312;101.728;2023-05-07T03:16:35;0.20;;;0.20;;
45128;SDS011;35512;56.312;101.728;2023-05-07T03:19:04;0.20;;;0.20;;
45128;SDS011;35512;56.312;101.728;2023-05-07T03:21:35;0.20;;;0.20;;
45128;SDS011;35512;56.312;101.728;2023-05-07T03:24:04;0.20;;;0.20;;
45128;SDS011;35512;56.312;101.728;2023-05-07T03:26:33;0.20;;;0.20;;
45128;SDS011;35512;56.312;101.728;2023-05-07T03:29:03;0.20;;;0.20;;
45128;SDS011;35512;56.312;101.728;2023-05-07T03:31:31;0.20;;;0.20;;
45128;SDS011;35512;56.312;101.728;2023-05-07T03:34:01;0.20;;;0.20;;
45128;SDS011;35512;56.312;101.728;2023-05-07T03:36:30;0.20;;;0.20;;
45128;SDS011;35512;56.312;101.728;2023-05-07T03:38:59;0.28;;;0.28;;
45128;SDS011;35512;56.312;101.728;2023-05-07T03:41:36;0.20;;;0.20;;
45128;SDS011;35512;56.312;101.728;2023-05-07T03:44:05;0.20;;;0.20;;
45128;SDS011;35512;56.312;101.728;2023-05-07T03:46:34;0.20;;;0.20;;
45128;SDS011;35512;56.312;101.728;2023-05-07T03:49:03;0.30;;;0.30;;
45128;SDS011;35512;56.312;101.728;2023-05-07T03:51:33;0.30;;;0.30;;
45128;SDS011;35512;56.312;101.728;2023-05-07T03:54:07;0.20;;;0.20;;
45128;SDS011;35512;56.312;101.728;2023-05-07T03:56:37;0.20;;;0.20;;
45128;SDS011;35512;56.312;101.728;2023-05-07T03:59:06;0.30;;;0.30;;
45128;SDS011;35512;56.312;101.728;2023-05-07T04:01:36;0.20;;;0.20;;
45128;SDS011;35512;56.312;101.728;2023-05-07T04:04:06;0.20;;;0.20;;
45128;SDS011;35512;56.312;101.728;2023-05-07T04:06:37;0.20;;;0.20;;
45128;SDS011;35512;56.312;101.728;2023-05-07T04:09:05;0.20;;;0.20;;
45128;SDS011;35512;56.312;101.728;2023-05-07T04:11:37;0.20;;;0.20;;
45128;SDS011;35512;56.312;101.728;2023-05-07T04:14:10;0.20;;;0.20;;
45128;SDS011;35512;56.312;101.728;2023-05-07T04:16:39;0.30;;;0.30;;
45128;SDS011;35512;56.312;101.728;2023-05-07T04:19:09;0.20;;;0.20;;
45128;SDS011;35512;56.312;101.728;2023-05-07T04:21:39;0.28;;;0.28;;
45128;SDS011;35512;56.312;101.728;2023-05-07T04:24:08;0.20;;;0.20;;
45128;SDS011;35512;56.312;101.728;2023-05-07T04:26:38;0.20;;;0.20;;
45128;SDS011;35512;56.312;101.728;2023-05-07T04:29:09;0.20;;;0.20;;
45128;SDS011;35512;56.312;101.728;2023-05-07T04:31:38;0.20;;;0.20;;
45128;SDS011;35512;56.312;101.728;2023-05-07T04:34:07;0.20;;;0.20;;
45128;SDS011;35512;56.312;101.728;2023-05-07T04:36:37;0.20;;;0.20;;
45128;SDS011;35512;56.312;101.728;2023-05-07T04:39:11;0.15;;;0.15;;
45128;SDS011;35512;56.312;101.728;2023-05-07T04:41:44;0.20;;;0.20;;
45128;SDS011;35512;56.312;101.728;2023-05-07T04:44:13;0.20;;;0.20;;
45128;SDS011;35512;56.312;101.728;2023-05-07T04:46:43;0.20;;;0.20;;
45128;SDS011;35512;56.312;101.728;2023-05-07T04:49:12;0.20;;;0.20;;
45128;SDS011;35512;56.312;101.728;2023-05-07T04:51:41;0.20;;;0.20;;
45128;SDS011;35512;56.312;101.728;2023-05-07T04:54:14;0.20;;;0.20;;
45128;SDS011;35512;56.312;101.728;2023-05-07T04:56:44;0.20;;;0.20;;
45128;SDS011;35512;56.312;101.728;2023-05-07T04:59:13;0.20;;;0.20;;
45128;SDS011;35512;56.312;101.728;2023-05-07T05:01:43;0.20;;;0.20;;
45128;SDS011;35512;56.312;101.728;2023-05-07T05:04:13;0.20;;;0.20;;
45128;SDS011;35512;56.312;101.728;2023-05-07T05:06:42;0.20;;;0.20;;
45128;SDS011;35512;56.312;101.728;2023-05-07T05:09:13;0.20;;;0.20;;
45128;SDS011;35512;56.312;101.728;2023-05-07T05:11:42;0.20;;;0.20;;
45128;SDS011;35512;56.312;101.728;2023-05-07T05:14:11;0.20;;;0.20;;
45128;SDS011;35512;56.312;101.728;2023-05-07T05:16:40;0.28;;;0.28;;
45128;SDS011;35512;56.312;101.728;2023-05-07T05:19:10;0.20;;;0.20;;
45128;SDS011;35512;56.312;101.728;2023-05-07T05:21:40;0.30;;;0.30;;
45128;SDS011;35512;56.312;101.728;2023-05-07T05:24:10;0.20;;;0.20;;
45128;SDS011;35512;56.312;101.728;2023-05-07T05:26:39;0.20;;;0.20;;
45128;SDS011;35512;56.312;101.728;2023-05-07T05:29:08;0.20;;;0.20;;
45128;SDS011;35512;56.312;101.728;2023-05-07T05:31:41;0.20;;;0.20;;
45128;SDS011;35512;56.312;101.728;2023-05-07T05:34:10;0.20;;;0.20;;
45128;SDS011;35512;56.312;101.728;2023-05-07T05:36:40;0.20;;;0.20;;
45128;SDS011;35512;56.312;101.728;2023-05-07T05:39:10;0.20;;;0.20;;
45128;SDS011;35512;56.312;101.728;2023-05-07T05:41:39;0.20;;;0.20;;
45128;SDS011;35512;56.312;101.728;2023-05-07T05:44:08;0.20;;;0.20;;
45128;SDS011;35512;56.312;101.728;2023-05-07T05:46:38;0.15;;;0.15;;
45128;SDS011;35512;56.312;101.728;2023-05-07T05:49:07;0.20;;;0.20;;
45128;SDS011;35512;56.312;101.728;2023-05-07T05:51:38;0.30;;;0.30;;
45128;SDS011;35512;56.312;101.728;2023-05-07T05:54:06;0.20;;;0.20;;
45128;SDS011;35512;56.312;101.728;2023-05-07T05:56:37;0.30;;;0.30;;
45128;SDS011;35512;56.312;101.728;2023-05-07T05:59:07;0.20;;;0.20;;
45128;SDS011;35512;56.312;101.728;2023-05-07T06:01:37;0.20;;;0.20;;
45128;SDS011;35512;56.312;101.728;2023-05-07T06:04:08;0.20;;;0.20;;
45128;SDS011;35512;56.312;101.728;2023-05-07T06:06:37;0.20;;;0.20;;
45128;SDS011;35512;56.312;101.728;2023-05-07T06:09:06;0.20;;;0.20;;
45128;SDS011;35512;56.312;101.728;2023-05-07T06:11:40;0.20;;;0.20;;
45128;SDS011;35512;56.312;101.728;2023-05-07T06:14:10;0.28;;;0.28;;
45128;SDS011;35512;56.312;101.728;2023-05-07T06:16:39;0.30;;;0.30;;
45128;SDS011;35512;56.312;101.728;2023-05-07T06:19:08;0.30;;;0.30;;
45128;SDS011;35512;56.312;101.728;2023-05-07T06:21:39;0.30;;;0.30;;
45128;SDS011;35512;56.312;101.728;2023-05-07T06:24:08;0.30;;;0.30;;
45128;SDS011;35512;56.312;101.728;2023-05-07T06:26:39;0.30;;;0.30;;
45128;SDS011;35512;56.312;101.728;2023-05-07T06:29:08;0.20;;;0.20;;
45128;SDS011;35512;56.312;101.728;2023-05-07T06:31:40;0.20;;;0.20;;
45128;SDS011;35512;56.312;101.728;2023-05-07T06:34:10;0.20;;;0.20;;
45128;SDS011;35512;56.312;101.728;2023-05-07T06:36:42;0.20;;;0.20;;
45128;SDS011;35512;56.312;101.728;2023-05-07T06:39:26;0.20;;;0.20;;
45128;SDS011;35512;56.312;101.728;2023-05-07T06:41:55;0.20;;;0.20;;
45128;SDS011;35512;56.312;101.728;2023-05-07T06:44:30;0.20;;;0.20;;
45128;SDS011;35512;56.312;101.728;2023-05-07T06:47:11;0.20;;;0.20;;
45128;SDS011;35512;56.312;101.728;2023-05-07T06:49:45;0.20;;;0.20;;
45128;SDS011;35512;56.312;101.728;2023-05-07T06:52:17;0.30;;;0.30;;
45128;SDS011;35512;56.312;101.728;2023-05-07T06:54:48;0.28;;;0.28;;
45128;SDS011;35512;56.312;101.728;2023-05-07T06:57:20;0.20;;;0.20;;
45128;SDS011;35512;56.312;101.728;2023-05-07T06:59:49;0.20;;;0.20;;
45128;SDS011;35512;56.312;101.728;2023-05-07T07:02:20;0.20;;;0.20;;
45128;SDS011;35512;56.312;101.728;2023-05-07T07:04:50;0.20;;;0.20;;
45128;SDS011;35512;56.312;101.728;2023-05-07T07:07:20;0.20;;;0.20;;
45128;SDS011;35512;56.312;101.728;2023-05-07T07:09:49;0.20;;;0.20;;
45128;SDS011;35512;56.312;101.728;2023-05-07T07:12:19;0.20;;;0.20;;
45128;SDS011;35512;56.312;101.728;2023-05-07T07:14:49;0.20;;;0.20;;
45128;SDS011;35512;56.312;101.728;2023-05-07T07:17:18;0.20;;;0.20;;
45128;SDS011;35512;56.312;101.728;2023-05-07T07:19:47;0.20;;;0.20;;
45128;SDS011;35512;56.312;101.728;2023-05-07T07:22:16;0.20;;;0.20;;
45128;SDS011;35512;56.312;101.728;2023-05-07T07:24:46;0.20;;;0.20;;
45128;SDS011;35512;56.312;101.728;2023-05-07T07:27:19;0.20;;;0.20;;
45128;SDS011;35512;56.312;101.728;2023-05-07T07:29:49;0.20;;;0.20;;
45128;SDS011;35512;56.312;101.728;2023-05-07T07:32:19;0.17;;;0.17;;
45128;SDS011;35512;56.312;101.728;2023-05-07T07:34:48;0.13;;;0.13;;
45128;SDS011;35512;56.312;101.728;2023-05-07T07:37:18;0.20;;;0.20;;
45128;SDS011;35512;56.312;101.728;2023-05-07T07:39:47;0.10;;;0.10;;
45128;SDS011;35512;56.312;101.728;2023-05-07T07:42:16;0.10;;;0.10;;
45128;SDS011;35512;56.312;101.728;2023-05-07T07:44:45;0.20;;;0.20;;
45128;SDS011;35512;56.312;101.728;2023-05-07T07:47:16;0.20;;;0.20;;
45128;SDS011;35512;56.312;101.728;2023-05-07T07:49:47;0.10;;;0.10;;
45128;SDS011;35512;56.312;101.728;2023-05-07T07:52:16;0.20;;;0.20;;
45128;SDS011;35512;56.312;101.728;2023-05-07T07:54:46;0.20;;;0.20;;
45128;SDS011;35512;56.312;101.728;2023-05-07T07:57:15;0.20;;;0.20;;
45128;SDS011;35512;56.312;101.728;2023-05-07T07:59:44;0.22;;;0.22;;
45128;SDS011;35512;56.312;101.728;2023-05-07T08:02:16;0.20;;;0.20;;
45128;SDS011;35512;56.312;101.728;2023-05-07T08:04:46;0.30;;;0.30;;
45128;SDS011;35512;56.312;101.728;2023-05-07T08:07:15;0.30;;;0.30;;
45128;SDS011;35512;56.312;101.728;2023-05-07T08:09:48;0.30;;;0.30;;
45128;SDS011;35512;56.312;101.728;2023-05-07T08:12:21;0.30;;;0.30;;
45128;SDS011;35512;56.312;101.728;2023-05-07T08:14:50;0.30;;;0.30;;
45128;SDS011;35512;56.312;101.728;2023-05-07T08:17:19;0.30;;;0.30;;
45128;SDS011;35512;56.312;101.728;2023-05-07T08:19:51;0.30;;;0.30;;
45128;SDS011;35512;56.312;101.728;2023-05-07T08:22:20;0.30;;;0.30;;
45128;SDS011;35512;56.312;101.728;2023-05-07T08:24:50;0.38;;;0.38;;
45128;SDS011;35512;56.312;101.728;2023-05-07T08:27:21;0.30;;;0.30;;
45128;SDS011;35512;56.312;101.728;2023-05-07T08:29:50;0.30;;;0.30;;
45128;SDS011;35512;56.312;101.728;2023-05-07T08:32:21;0.30;;;0.30;;
45128;SDS011;35512;56.312;101.728;2023-05-07T08:34:50;0.30;;;0.30;;
45128;SDS011;35512;56.312;101.728;2023-05-07T08:37:19;0.30;;;0.30;;
45128;SDS011;35512;56.312;101.728;2023-05-07T08:39:51;0.30;;;0.30;;
45128;SDS011;35512;56.312;101.728;2023-05-07T08:42:23;0.30;;;0.30;;
45128;SDS011;35512;56.312;101.728;2023-05-07T08:44:53;0.30;;;0.30;;
45128;SDS011;35512;56.312;101.728;2023-05-07T08:47:27;0.30;;;0.30;;
45128;SDS011;35512;56.312;101.728;2023-05-07T08:50:03;0.30;;;0.30;;
45128;SDS011;35512;56.312;101.728;2023-05-07T08:52:34;0.30;;;0.30;;
45128;SDS011;35512;56.312;101.728;2023-05-07T08:55:04;0.30;;;0.30;;
45128;SDS011;35512;56.312;101.728;2023-05-07T08:57:34;0.30;;;0.30;;
45128;SDS011;35512;56.312;101.728;2023-05-07T09:00:05;0.30;;;0.30;;
45128;SDS011;35512;56.312;101.728;2023-05-07T09:02:37;0.30;;;0.30;;
45128;SDS011;35512;56.312;101.728;2023-05-07T09:05:08;0.30;;;0.30;;
45128;SDS011;35512;56.312;101.728;2023-05-07T09:07:39;0.30;;;0.30;;
45128;SDS011;35512;56.312;101.728;2023-05-07T09:10:09;0.30;;;0.30;;
45128;SDS011;35512;56.312;101.728;2023-05-07T09:12:40;0.30;;;0.30;;
45128;SDS011;35512;56.312;101.728;2023-05-07T09:15:11;0.30;;;0.30;;
45128;SDS011;35512;56.312;101.728;2023-05-07T09:17:41;0.30;;;0.30;;
45128;SDS011;35512;56.312;101.728;2023-05-07T09:20:13;0.30;;;0.30;;
45128;SDS011;35512;56.312;101.728;2023-05-07T09:22:42;0.30;;;0.30;;
45128;SDS011;35512;56.312;101.728;2023-05-07T09:25:15;0.35;;;0.35;;
45128;SDS011;35512;56.312;101.728;2023-05-07T09:27:59;0.30;;;0.30;;
45128;SDS011;35512;56.312;101.728;2023-05-07T09:30:29;0.40;;;0.40;;
45128;SDS011;35512;56.312;101.728;2023-05-07T09:33:02;0.30;;;0.30;;
45128;SDS011;35512;56.312;101.728;2023-05-07T09:35:35;0.30;;;0.30;;
45128;SDS011;35512;56.312;101.728;2023-05-07T09:38:10;0.30;;;0.30;;
45128;SDS011;35512;56.312;101.728;2023-05-07T09:40:41;0.30;;;0.30;;
45128;SDS011;35512;56.312;101.728;2023-05-07T09:43:14;0.30;;;0.30;;
45128;SDS011;35512;56.312;101.728;2023-05-07T09:45:52;0.30;;;0.30;;
45128;SDS011;35512;56.312;101.728;2023-05-07T09:48:25;0.30;;;0.30;;
45128;SDS011;35512;56.312;101.728;2023-05-07T09:50:56;0.35;;;0.35;;
45128;SDS011;35512;56.312;101.728;2023-05-07T09:53:33;0.30;;;0.30;;
45128;SDS011;35512;56.312;101.728;2023-05-07T09:56:04;0.30;;;0.30;;
45128;SDS011;35512;56.312;101.728;2023-05-07T09:58:34;0.30;;;0.30;;
45128;SDS011;35512;56.312;101.728;2023-05-07T10:01:10;0.40;;;0.40;;
45128;SDS011;35512;56.312;101.728;2023-05-07T10:03:42;0.30;;;0.30;;
45128;SDS011;35512;56.312;101.728;2023-05-07T10:06:13;0.30;;;0.30;;
45128;SDS011;35512;56.312;101.728;2023-05-07T10:08:43;0.30;;;0.30;;
45128;SDS011;35512;56.312;101.728;2023-05-07T10:11:15;0.30;;;0.30;;
45128;SDS011;35512;56.312;101.728;2023-05-07T10:13:45;0.30;;;0.30;;
45128;SDS011;35512;56.312;101.728;2023-05-07T10:16:16;0.30;;;0.30;;
45128;SDS011;35512;56.312;101.728;2023-05-07T10:18:49;0.30;;;0.30;;
45128;SDS011;35512;56.312;101.728;2023-05-07T10:21:23;0.30;;;0.30;;
45128;SDS011;35512;56.312;101.728;2023-05-07T10:24:04;0.30;;;0.30;;
45128;SDS011;35512;56.312;101.728;2023-05-07T10:26:44;0.30;;;0.30;;
45128;SDS011;35512;56.312;101.728;2023-05-07T10:35:29;0.30;;;0.30;;
45128;SDS011;35512;56.312;101.728;2023-05-07T10:40:34;0.30;;;0.30;;
45128;SDS011;35512;56.312;101.728;2023-05-07T10:43:06;0.30;;;0.30;;
45128;SDS011;35512;56.312;101.728;2023-05-07T10:45:42;0.30;;;0.30;;
45128;SDS011;35512;56.312;101.728;2023-05-07T10:48:12;0.30;;;0.30;;
45128;SDS011;35512;56.312;101.728;2023-05-07T10:50:53;0.30;;;0.30;;
45128;SDS011;35512;56.312;101.728;2023-05-07T10:56:43;0.30;;;0.30;;
45128;SDS011;35512;56.312;101.728;2023-05-07T11:02:22;0.30;;;0.30;;
45128;SDS011;35512;56.312;101.728;2023-05-07T11:07:58;0.30;;;0.30;;
45128;SDS011;35512;56.312;101.728;2023-05-07T11:10:52;0.30;;;0.30;;
45128;SDS011;35512;56.312;101.728;2023-05-07T11:13:45;0.30;;;0.30;;
45128;SDS011;35512;56.312;101.728;2023-05-07T11:16:27;0.30;;;0.30;;
45128;SDS011;35512;56.312;101.728;2023-05-07T11:19:08;0.30;;;0.30;;
45128;SDS011;35512;56.312;101.728;2023-05-07T11:21:44;0.30;;;0.30;;
45128;SDS011;35512;56.312;101.728;2023-05-07T11:24:51;0.30;;;0.30;;
45128;SDS011;35512;56.312;101.728;2023-05-07T11:27:24;0.32;;;0.32;;
45128;SDS011;35512;56.312;101.728;2023-05-07T11:29:56;0.30;;;0.30;;
45128;SDS011;35512;56.312;101.728;2023-05-07T11:32:26;0.30;;;0.30;;
45128;SDS011;35512;56.312;101.728;2023-05-07T11:34:59;0.30;;;0.30;;
45128;SDS011;35512;56.312;101.728;2023-05-07T11:37:30;0.30;;;0.30;;
45128;SDS011;35512;56.312;101.728;2023-05-07T11:40:06;0.30;;;0.30;;
45128;SDS011;35512;56.312;101.728;2023-05-07T11:42:39;0.30;;;0.30;;
45128;SDS011;35512;56.312;101.728;2023-05-07T11:45:11;0.30;;;0.30;;
45128;SDS011;35512;56.312;101.728;2023-05-07T11:47:41;0.30;;;0.30;;
45128;SDS011;35512;56.312;101.728;2023-05-07T11:50:11;0.30;;;0.30;;
45128;SDS011;35512;56.312;101.728;2023-05-07T11:52:49;0.30;;;0.30;;
45128;SDS011;35512;56.312;101.728;2023-05-07T11:55:18;0.30;;;0.30;;
45128;SDS011;35512;56.312;101.728;2023-05-07T11:57:48;0.30;;;0.30;;
45128;SDS011;35512;56.312;101.728;2023-05-07T12:00:17;0.30;;;0.30;;
45128;SDS011;35512;56.312;101.728;2023-05-07T12:02:47;0.30;;;0.30;;
45128;SDS011;35512;56.312;101.728;2023-05-07T12:05:17;0.30;;;0.30;;
45128;SDS011;35512;56.312;101.728;2023-05-07T12:07:46;0.30;;;0.30;;
45128;SDS011;35512;56.312;101.728;2023-05-07T12:10:15;0.30;;;0.30;;
45128;SDS011;35512;56.312;101.728;2023-05-07T12:12:45;0.30;;;0.30;;
45128;SDS011;35512;56.312;101.728;2023-05-07T12:15:18;0.30;;;0.30;;
45128;SDS011;35512;56.312;101.728;2023-05-07T12:17:51;0.30;;;0.30;;
45128;SDS011;35512;56.312;101.728;2023-05-07T12:20:21;0.30;;;0.30;;
45128;SDS011;35512;56.312;101.728;2023-05-07T12:22:51;0.30;;;0.30;;
45128;SDS011;35512;56.312;101.728;2023-05-07T12:25:21;0.30;;;0.30;;
45128;SDS011;35512;56.312;101.728;2023-05-07T12:27:51;0.30;;;0.30;;
45128;SDS011;35512;56.312;101.728;2023-05-07T12:30:21;0.30;;;0.30;;
45128;SDS011;35512;56.312;101.728;2023-05-07T12:32:53;0.30;;;0.30;;
45128;SDS011;35512;56.312;101.728;2023-05-07T12:35:30;0.30;;;0.30;;
45128;SDS011;35512;56.312;101.728;2023-05-07T12:38:01;0.30;;;0.30;;
45128;SDS011;35512;56.312;101.728;2023-05-07T12:40:36;0.30;;;0.30;;
45128;SDS011;35512;56.312;101.728;2023-05-07T12:43:05;0.30;;;0.30;;
45128;SDS011;35512;56.312;101.728;2023-05-07T12:45:37;0.30;;;0.30;;
45128;SDS011;35512;56.312;101.728;2023-05-07T12:48:07;0.30;;;0.30;;
45128;SDS011;35512;56.312;101.728;2023-05-07T12:50:39;0.30;;;0.30;;
45128;SDS011;35512;56.312;101.728;2023-05-07T12:53:10;0.30;;;0.30;;
45128;SDS011;35512;56.312;101.728;2023-05-07T12:55:47;0.30;;;0.30;;
45128;SDS011;35512;56.312;101.728;2023-05-07T12:58:18;0.30;;;0.30;;
45128;SDS011;35512;56.312;101.728;2023-05-07T13:00:51;0.30;;;0.30;;
45128;SDS011;35512;56.312;101.728;2023-05-07T13:03:22;0.30;;;0.30;;
45128;SDS011;35512;56.312;101.728;2023-05-07T13:05:54;0.30;;;0.30;;
45128;SDS011;35512;56.312;101.728;2023-05-07T13:08:44;0.30;;;0.30;;
45128;SDS011;35512;56.312;101.728;2023-05-07T13:11:13;0.30;;;0.30;;
45128;SDS011;35512;56.312;101.728;2023-05-07T13:13:42;0.30;;;0.30;;
45128;SDS011;35512;56.312;101.728;2023-05-07T13:16:11;0.40;;;0.40;;
45128;SDS011;35512;56.312;101.728;2023-05-07T13:18:40;0.30;;;0.30;;
45128;SDS011;35512;56.312;101.728;2023-05-07T13:21:11;0.30;;;0.30;;
45128;SDS011;35512;56.312;101.728;2023-05-07T13:23:42;0.30;;;0.30;;
45128;SDS011;35512;56.312;101.728;2023-05-07T13:26:11;0.30;;;0.30;;
45128;SDS011;35512;56.312;101.728;2023-05-07T13:28:53;0.30;;;0.30;;
45128;SDS011;35512;56.312;101.728;2023-05-07T13:31:24;0.30;;;0.30;;
45128;SDS011;35512;56.312;101.728;2023-05-07T13:33:53;0.30;;;0.30;;
45128;SDS011;35512;56.312;101.728;2023-05-07T13:36:25;0.30;;;0.30;;
45128;SDS011;35512;56.312;101.728;2023-05-07T13:38:54;0.30;;;0.30;;
45128;SDS011;35512;56.312;101.728;2023-05-07T13:41:23;0.30;;;0.30;;
45128;SDS011;35512;56.312;101.728;2023-05-07T13:43:52;0.40;;;0.40;;
45128;SDS011;35512;56.312;101.728;2023-05-07T13:46:23;0.30;;;0.30;;
45128;SDS011;35512;56.312;101.728;2023-05-07T13:48:52;0.30;;;0.30;;
45128;SDS011;35512;56.312;101.728;2023-05-07T13:51:21;0.30;;;0.30;;
45128;SDS011;35512;56.312;101.728;2023-05-07T13:53:50;0.30;;;0.30;;
45128;SDS011;35512;56.312;101.728;2023-05-07T13:56:25;0.30;;;0.30;;
45128;SDS011;35512;56.312;101.728;2023-05-07T13:58:54;0.30;;;0.30;;
45128;SDS011;35512;56.312;101.728;2023-05-07T14:01:27;0.30;;;0.30;;
45128;SDS011;35512;56.312;101.728;2023-05-07T14:03:58;0.30;;;0.30;;
45128;SDS011;35512;56.312;101.728;2023-05-07T14:06:27;0.30;;;0.30;;
45128;SDS011;35512;56.312;101.728;2023-05-07T14:08:56;0.30;;;0.30;;
45128;SDS011;35512;56.312;101.728;2023-05-07T14:11:26;0.30;;;0.30;;
45128;SDS011;35512;56.312;101.728;2023-05-07T14:13:55;0.30;;;0.30;;
45128;SDS011;35512;56.312;101.728;2023-05-07T14:16:25;0.30;;;0.30;;
45128;SDS011;35512;56.312;101.728;2023-05-07T14:18:54;0.30;;;0.30;;
45128;SDS011;35512;56.312;101.728;2023-05-07T14:21:25;0.30;;;0.30;;
45128;SDS011;35512;56.312;101.728;2023-05-07T14:23:54;0.30;;;0.30;;
45128;SDS011;35512;56.312;101.728;2023-05-07T14:26:24;0.30;;;0.30;;
45128;SDS011;35512;56.312;101.728;2023-05-07T14:28:55;0.30;;;0.30;;
45128;SDS011;35512;56.312;101.728;2023-05-07T14:31:26;0.30;;;0.30;;
45128;SDS011;35512;56.312;101.728;2023-05-07T14:33:55;0.30;;;0.30;;
45128;SDS011;35512;56.312;101.728;2023-05-07T14:36:26;0.30;;;0.30;;
45128;SDS011;35512;56.312;101.728;2023-05-07T14:38:55;0.30;;;0.30;;
45128;SDS011;35512;56.312;101.728;2023-05-07T14:41:28;0.30;;;0.30;;
45128;SDS011;35512;56.312;101.728;2023-05-07T14:43:57;0.30;;;0.30;;
45128;SDS011;35512;56.312;101.728;2023-05-07T14:46:27;0.30;;;0.30;;
45128;SDS011;35512;56.312;101.728;2023-05-07T14:48:56;0.30;;;0.30;;
45128;SDS011;35512;56.312;101.728;2023-05-07T14:51:26;0.30;;;0.30;;
45128;SDS011;35512;56.312;101.728;2023-05-07T14:53:56;0.30;;;0.30;;
45128;SDS011;35512;56.312;101.728;2023-05-07T14:56:25;0.30;;;0.30;;
45128;SDS011;35512;56.312;101.728;2023-05-07T14:58:54;0.30;;;0.30;;
45128;SDS011;35512;56.312;101.728;2023-05-07T15:01:25;0.30;;;0.30;;